Alta, Wyoming
Current Conditions -  °F | °C
As of 1:56 AM on Wednesday 28 Jan 2015 (Local Time) from KDIJ Reporting Station
Overcast Overcast  
Wind Chill: 30°   Ceiling: 2500
Heat Index: 36°   Visibility: 10mi
Dew Point: 34°   Wind: 8mph
Humidity: 93%   Direction: 170°S
Pressure: 30.13"   Gusts: NA
Location:  43.77°N, 110.98°W
Report Text: KDIJ 280856Z AUTO 17007KT 10SM BKN025 OVC030 02/01 A3013 RMK AO2 58002 60000 T00220011 UPB20E30 P0000 SLP174
Loading
Personal Weather Stations






























Interactive Weather Map New forecast layout! Learn more

10-Day Weather Forecast

Advertisements
Track Severe Weather on mobile